sensor_id;sensor_type;location;lat;lon;timestamp;temperature;humidity
64685;DHT22;51109;47.414;18.954;2023-09-30T00:02:15;16.20;99.90
64685;DHT22;51109;47.414;18.954;2023-09-30T00:04:41;16.00;99.90
64685;DHT22;51109;47.414;18.954;2023-09-30T00:07:07;15.90;99.90
64685;DHT22;51109;47.414;18.954;2023-09-30T00:09:33;15.90;99.90
64685;DHT22;51109;47.414;18.954;2023-09-30T00:11:59;15.90;99.90
64685;DHT22;51109;47.414;18.954;2023-09-30T00:14:25;15.70;99.90
64685;DHT22;51109;47.414;18.954;2023-09-30T00:16:51;15.70;99.90
64685;DHT22;51109;47.414;18.954;2023-09-30T00:19:17;16.00;99.90
64685;DHT22;51109;47.414;18.954;2023-09-30T00:21:43;16.20;99.90
64685;DHT22;51109;47.414;18.954;2023-09-30T00:24:08;16.30;99.90
64685;DHT22;51109;47.414;18.954;2023-09-30T00:26:35;16.50;99.90
64685;DHT22;51109;47.414;18.954;2023-09-30T00:29:01;16.60;99.90
64685;DHT22;51109;47.414;18.954;2023-09-30T00:31:30;16.40;99.90
64685;DHT22;51109;47.414;18.954;2023-09-30T00:33:57;16.30;99.90
64685;DHT22;51109;47.414;18.954;2023-09-30T00:36:23;16.30;99.90
64685;DHT22;51109;47.414;18.954;2023-09-30T00:38:48;16.10;99.90
64685;DHT22;51109;47.414;18.954;2023-09-30T00:41:14;16.10;99.90
64685;DHT22;51109;47.414;18.954;2023-09-30T00:43:40;16.10;99.90
64685;DHT22;51109;47.414;18.954;2023-09-30T00:48:47;16.20;99.90
64685;DHT22;51109;47.414;18.954;2023-09-30T00:51:13;16.20;99.90
64685;DHT22;51109;47.414;18.954;2023-09-30T00:53:40;16.20;99.90
64685;DHT22;51109;47.414;18.954;2023-09-30T00:56:07;16.10;99.90
64685;DHT22;51109;47.414;18.954;2023-09-30T00:58:34;16.20;99.90
64685;DHT22;51109;47.414;18.954;2023-09-30T01:01:01;16.40;99.90
64685;DHT22;51109;47.414;18.954;2023-09-30T01:03:27;16.40;99.90
64685;DHT22;51109;47.414;18.954;2023-09-30T01:05:53;16.50;99.90
64685;DHT22;51109;47.414;18.954;2023-09-30T01:08:19;16.60;99.90
64685;DHT22;51109;47.414;18.954;2023-09-30T01:10:46;16.60;99.90
64685;DHT22;51109;47.414;18.954;2023-09-30T01:13:12;16.60;99.90
64685;DHT22;51109;47.414;18.954;2023-09-30T01:15:38;16.50;99.90
64685;DHT22;51109;47.414;18.954;2023-09-30T01:18:04;16.50;99.90
64685;DHT22;51109;47.414;18.954;2023-09-30T01:20:30;16.40;99.90
64685;DHT22;51109;47.414;18.954;2023-09-30T01:22:57;16.40;99.90
64685;DHT22;51109;47.414;18.954;2023-09-30T01:25:24;16.40;99.90
64685;DHT22;51109;47.414;18.954;2023-09-30T01:27:50;16.50;99.90
64685;DHT22;51109;47.414;18.954;2023-09-30T01:30:19;16.50;99.90
64685;DHT22;51109;47.414;18.954;2023-09-30T01:32:47;16.50;99.90
64685;DHT22;51109;47.414;18.954;2023-09-30T01:35:14;16.50;99.90
64685;DHT22;51109;47.414;18.954;2023-09-30T01:37:40;16.50;99.90
64685;DHT22;51109;47.414;18.954;2023-09-30T01:40:06;16.50;99.90
64685;DHT22;51109;47.414;18.954;2023-09-30T01:42:34;16.60;99.90
64685;DHT22;51109;47.414;18.954;2023-09-30T01:44:59;16.30;99.90
64685;DHT22;51109;47.414;18.954;2023-09-30T01:47:25;16.20;99.90
64685;DHT22;51109;47.414;18.954;2023-09-30T01:49:51;16.20;99.90
64685;DHT22;51109;47.414;18.954;2023-09-30T01:52:17;16.30;99.90
64685;DHT22;51109;47.414;18.954;2023-09-30T01:54:43;16.50;99.90
64685;DHT22;51109;47.414;18.954;2023-09-30T01:57:08;16.60;99.90
64685;DHT22;51109;47.414;18.954;2023-09-30T01:59:35;16.50;99.90
64685;DHT22;51109;47.414;18.954;2023-09-30T02:02:01;16.50;99.90
64685;DHT22;51109;47.414;18.954;2023-09-30T02:04:28;16.50;99.90
64685;DHT22;51109;47.414;18.954;2023-09-30T02:06:54;16.40;99.90
64685;DHT22;51109;47.414;18.954;2023-09-30T02:09:20;16.40;99.90
64685;DHT22;51109;47.414;18.954;2023-09-30T02:11:46;16.40;99.90
64685;DHT22;51109;47.414;18.954;2023-09-30T02:14:12;16.30;99.90
64685;DHT22;51109;47.414;18.954;2023-09-30T02:16:38;16.20;99.90
64685;DHT22;51109;47.414;18.954;2023-09-30T02:19:04;16.20;99.90
64685;DHT22;51109;47.414;18.954;2023-09-30T02:21:30;16.10;99.90
64685;DHT22;51109;47.414;18.954;2023-09-30T02:23:56;16.10;99.90
64685;DHT22;51109;47.414;18.954;2023-09-30T02:26:22;16.00;99.90
64685;DHT22;51109;47.414;18.954;2023-09-30T02:28:51;16.00;99.90
64685;DHT22;51109;47.414;18.954;2023-09-30T02:31:18;15.80;99.90
64685;DHT22;51109;47.414;18.954;2023-09-30T02:33:44;15.90;99.90
64685;DHT22;51109;47.414;18.954;2023-09-30T02:36:10;15.70;99.90
64685;DHT22;51109;47.414;18.954;2023-09-30T02:38:38;15.50;99.90
64685;DHT22;51109;47.414;18.954;2023-09-30T02:41:04;15.60;99.90
64685;DHT22;51109;47.414;18.954;2023-09-30T02:43:29;15.70;99.90
64685;DHT22;51109;47.414;18.954;2023-09-30T02:45:55;15.80;99.90
64685;DHT22;51109;47.414;18.954;2023-09-30T02:48:21;15.90;99.90
64685;DHT22;51109;47.414;18.954;2023-09-30T02:50:47;15.90;99.90
64685;DHT22;51109;47.414;18.954;2023-09-30T02:53:13;15.90;99.90
64685;DHT22;51109;47.414;18.954;2023-09-30T02:55:42;15.80;99.90
64685;DHT22;51109;47.414;18.954;2023-09-30T02:58:08;15.80;99.90
64685;DHT22;51109;47.414;18.954;2023-09-30T03:00:35;15.70;99.90
64685;DHT22;51109;47.414;18.954;2023-09-30T03:03:02;15.70;99.90
64685;DHT22;51109;47.414;18.954;2023-09-30T03:05:28;15.70;99.90
64685;DHT22;51109;47.414;18.954;2023-09-30T03:07:57;15.70;99.90
64685;DHT22;51109;47.414;18.954;2023-09-30T03:12:50;15.70;99.90
64685;DHT22;51109;47.414;18.954;2023-09-30T03:15:16;15.70;99.90
64685;DHT22;51109;47.414;18.954;2023-09-30T03:17:42;15.70;99.90
64685;DHT22;51109;47.414;18.954;2023-09-30T03:20:09;15.60;99.90
64685;DHT22;51109;47.414;18.954;2023-09-30T03:22:41;15.50;99.90
64685;DHT22;51109;47.414;18.954;2023-09-30T03:25:15;15.30;99.90
64685;DHT22;51109;47.414;18.954;2023-09-30T03:27:46;15.00;99.90
64685;DHT22;51109;47.414;18.954;2023-09-30T03:32:42;14.70;99.90
64685;DHT22;51109;47.414;18.954;2023-09-30T03:35:09;14.60;99.90
64685;DHT22;51109;47.414;18.954;2023-09-30T03:37:45;14.60;99.90
64685;DHT22;51109;47.414;18.954;2023-09-30T03:40:12;14.60;99.90
64685;DHT22;51109;47.414;18.954;2023-09-30T03:42:40;14.70;99.90
64685;DHT22;51109;47.414;18.954;2023-09-30T03:45:08;14.70;99.90
64685;DHT22;51109;47.414;18.954;2023-09-30T03:47:39;14.60;99.90
64685;DHT22;51109;47.414;18.954;2023-09-30T03:50:05;14.70;99.90
64685;DHT22;51109;47.414;18.954;2023-09-30T03:52:38;14.60;99.90
64685;DHT22;51109;47.414;18.954;2023-09-30T03:55:04;14.60;99.90
64685;DHT22;51109;47.414;18.954;2023-09-30T03:57:34;14.40;99.90
64685;DHT22;51109;47.414;18.954;2023-09-30T04:00:00;14.40;99.90
64685;DHT22;51109;47.414;18.954;2023-09-30T04:02:26;14.50;99.90
64685;DHT22;51109;47.414;18.954;2023-09-30T04:04:52;14.30;99.90
64685;DHT22;51109;47.414;18.954;2023-09-30T04:07:19;14.50;99.90
64685;DHT22;51109;47.414;18.954;2023-09-30T04:09:46;14.40;99.90
64685;DHT22;51109;47.414;18.954;2023-09-30T04:12:12;14.30;99.90
64685;DHT22;51109;47.414;18.954;2023-09-30T04:14:38;14.30;99.90
64685;DHT22;51109;47.414;18.954;2023-09-30T04:17:04;14.20;99.90
64685;DHT22;51109;47.414;18.954;2023-09-30T04:19:30;14.30;99.90
64685;DHT22;51109;47.414;18.954;2023-09-30T04:21:57;14.30;99.90
64685;DHT22;51109;47.414;18.954;2023-09-30T04:24:23;14.20;99.90
64685;DHT22;51109;47.414;18.954;2023-09-30T04:26:48;14.30;99.90
64685;DHT22;51109;47.414;18.954;2023-09-30T04:29:16;14.20;99.90
64685;DHT22;51109;47.414;18.954;2023-09-30T04:31:42;14.10;99.90
64685;DHT22;51109;47.414;18.954;2023-09-30T04:34:08;14.10;99.90
64685;DHT22;51109;47.414;18.954;2023-09-30T04:36:34;14.10;99.90
64685;DHT22;51109;47.414;18.954;2023-09-30T04:39:00;14.10;99.90
64685;DHT22;51109;47.414;18.954;2023-09-30T04:41:27;14.00;99.90
64685;DHT22;51109;47.414;18.954;2023-09-30T04:43:52;14.00;99.90
64685;DHT22;51109;47.414;18.954;2023-09-30T04:46:18;14.10;99.90
64685;DHT22;51109;47.414;18.954;2023-09-30T04:48:49;14.30;99.90
64685;DHT22;51109;47.414;18.954;2023-09-30T04:51:17;14.30;99.90
64685;DHT22;51109;47.414;18.954;2023-09-30T04:53:45;14.30;99.90
64685;DHT22;51109;47.414;18.954;2023-09-30T04:56:14;14.30;99.90
64685;DHT22;51109;47.414;18.954;2023-09-30T04:58:40;14.20;99.90
64685;DHT22;51109;47.414;18.954;2023-09-30T05:03:35;14.40;99.90
64685;DHT22;51109;47.414;18.954;2023-09-30T05:06:01;14.40;99.90
64685;DHT22;51109;47.414;18.954;2023-09-30T05:08:27;14.40;99.90
64685;DHT22;51109;47.414;18.954;2023-09-30T05:10:54;14.30;99.90
64685;DHT22;51109;47.414;18.954;2023-09-30T05:13:21;14.40;99.90
64685;DHT22;51109;47.414;18.954;2023-09-30T05:15:49;14.50;99.90
64685;DHT22;51109;47.414;18.954;2023-09-30T05:18:17;14.60;99.90
64685;DHT22;51109;47.414;18.954;2023-09-30T05:20:43;14.60;99.90
64685;DHT22;51109;47.414;18.954;2023-09-30T05:23:09;14.80;99.90
64685;DHT22;51109;47.414;18.954;2023-09-30T05:25:39;14.90;99.90
64685;DHT22;51109;47.414;18.954;2023-09-30T05:28:05;14.90;99.90
64685;DHT22;51109;47.414;18.954;2023-09-30T05:30:35;14.90;99.90
64685;DHT22;51109;47.414;18.954;2023-09-30T05:33:01;15.20;99.90
64685;DHT22;51109;47.414;18.954;2023-09-30T05:35:27;15.20;99.90
64685;DHT22;51109;47.414;18.954;2023-09-30T05:37:54;15.40;99.90
64685;DHT22;51109;47.414;18.954;2023-09-30T05:40:20;15.50;99.90
64685;DHT22;51109;47.414;18.954;2023-09-30T05:42:56;15.60;99.90
64685;DHT22;51109;47.414;18.954;2023-09-30T05:45:31;15.80;99.90
64685;DHT22;51109;47.414;18.954;2023-09-30T05:48:01;16.00;99.90
64685;DHT22;51109;47.414;18.954;2023-09-30T05:50:29;16.20;99.90
64685;DHT22;51109;47.414;18.954;2023-09-30T05:52:55;16.50;99.90
64685;DHT22;51109;47.414;18.954;2023-09-30T05:55:22;16.50;99.90
64685;DHT22;51109;47.414;18.954;2023-09-30T05:57:49;16.70;99.90
64685;DHT22;51109;47.414;18.954;2023-09-30T06:00:15;16.80;99.90
64685;DHT22;51109;47.414;18.954;2023-09-30T06:02:53;16.90;99.90
64685;DHT22;51109;47.414;18.954;2023-09-30T06:05:20;17.10;99.90
64685;DHT22;51109;47.414;18.954;2023-09-30T06:07:48;17.20;99.90
64685;DHT22;51109;47.414;18.954;2023-09-30T06:10:14;17.30;99.90
64685;DHT22;51109;47.414;18.954;2023-09-30T06:12:48;17.40;99.90
64685;DHT22;51109;47.414;18.954;2023-09-30T06:15:20;17.50;99.90
64685;DHT22;51109;47.414;18.954;2023-09-30T06:17:49;17.70;99.90
64685;DHT22;51109;47.414;18.954;2023-09-30T06:20:15;17.70;99.90
64685;DHT22;51109;47.414;18.954;2023-09-30T06:22:45;17.80;99.90
64685;DHT22;51109;47.414;18.954;2023-09-30T06:25:12;17.90;99.90
64685;DHT22;51109;47.414;18.954;2023-09-30T06:27:39;17.90;99.90
64685;DHT22;51109;47.414;18.954;2023-09-30T06:30:05;18.00;99.90
64685;DHT22;51109;47.414;18.954;2023-09-30T06:32:31;18.00;99.90
64685;DHT22;51109;47.414;18.954;2023-09-30T06:34:59;18.10;99.90
64685;DHT22;51109;47.414;18.954;2023-09-30T06:37:25;18.20;99.90
64685;DHT22;51109;47.414;18.954;2023-09-30T06:39:52;18.30;99.90
64685;DHT22;51109;47.414;18.954;2023-09-30T06:42:18;18.30;99.90
64685;DHT22;51109;47.414;18.954;2023-09-30T06:44:44;18.30;99.90
64685;DHT22;51109;47.414;18.954;2023-09-30T06:47:10;18.30;99.90
64685;DHT22;51109;47.414;18.954;2023-09-30T06:49:38;18.20;99.90
64685;DHT22;51109;47.414;18.954;2023-09-30T06:52:05;18.20;99.90
64685;DHT22;51109;47.414;18.954;2023-09-30T06:54:31;18.10;99.90
64685;DHT22;51109;47.414;18.954;2023-09-30T06:56:57;18.10;99.90
64685;DHT22;51109;47.414;18.954;2023-09-30T06:59:23;18.10;99.90
64685;DHT22;51109;47.414;18.954;2023-09-30T07:01:52;18.10;99.90
64685;DHT22;51109;47.414;18.954;2023-09-30T07:04:18;18.00;99.90
64685;DHT22;51109;47.414;18.954;2023-09-30T07:06:43;17.90;99.90
64685;DHT22;51109;47.414;18.954;2023-09-30T07:09:09;18.00;99.90
64685;DHT22;51109;47.414;18.954;2023-09-30T07:11:36;18.00;99.90
64685;DHT22;51109;47.414;18.954;2023-09-30T07:14:02;18.20;99.90
64685;DHT22;51109;47.414;18.954;2023-09-30T07:16:28;18.20;99.90
64685;DHT22;51109;47.414;18.954;2023-09-30T07:18:53;18.30;99.90
64685;DHT22;51109;47.414;18.954;2023-09-30T07:21:19;18.30;99.90
64685;DHT22;51109;47.414;18.954;2023-09-30T07:23:45;18.40;99.90
64685;DHT22;51109;47.414;18.954;2023-09-30T07:26:11;18.40;99.90
64685;DHT22;51109;47.414;18.954;2023-09-30T07:28:37;18.40;99.90
64685;DHT22;51109;47.414;18.954;2023-09-30T07:31:02;18.40;99.90
64685;DHT22;51109;47.414;18.954;2023-09-30T07:33:28;18.50;99.90
64685;DHT22;51109;47.414;18.954;2023-09-30T07:35:55;18.60;99.90
64685;DHT22;51109;47.414;18.954;2023-09-30T07:38:21;18.70;99.90
64685;DHT22;51109;47.414;18.954;2023-09-30T07:40:48;18.70;99.90
64685;DHT22;51109;47.414;18.954;2023-09-30T07:43:17;18.90;99.90
64685;DHT22;51109;47.414;18.954;2023-09-30T07:45:46;19.00;99.90
64685;DHT22;51109;47.414;18.954;2023-09-30T07:48:11;19.10;99.90
64685;DHT22;51109;47.414;18.954;2023-09-30T07:50:37;19.20;99.90
64685;DHT22;51109;47.414;18.954;2023-09-30T07:53:04;19.30;99.90
64685;DHT22;51109;47.414;18.954;2023-09-30T07:55:30;19.40;99.90
64685;DHT22;51109;47.414;18.954;2023-09-30T07:57:56;19.50;99.90
64685;DHT22;51109;47.414;18.954;2023-09-30T08:00:24;19.50;99.90
64685;DHT22;51109;47.414;18.954;2023-09-30T08:02:50;19.60;99.90
64685;DHT22;51109;47.414;18.954;2023-09-30T08:05:16;19.70;99.90
64685;DHT22;51109;47.414;18.954;2023-09-30T08:07:42;19.80;99.90
64685;DHT22;51109;47.414;18.954;2023-09-30T08:10:09;19.80;99.90
64685;DHT22;51109;47.414;18.954;2023-09-30T08:12:39;20.00;99.90
64685;DHT22;51109;47.414;18.954;2023-09-30T08:15:07;20.10;99.90
64685;DHT22;51109;47.414;18.954;2023-09-30T08:17:33;20.20;99.90
64685;DHT22;51109;47.414;18.954;2023-09-30T08:19:59;20.40;99.90
64685;DHT22;51109;47.414;18.954;2023-09-30T08:22:25;20.40;99.90
64685;DHT22;51109;47.414;18.954;2023-09-30T08:24:54;20.60;99.90
64685;DHT22;51109;47.414;18.954;2023-09-30T08:27:20;20.80;99.90
64685;DHT22;51109;47.414;18.954;2023-09-30T08:29:46;20.80;99.90
64685;DHT22;51109;47.414;18.954;2023-09-30T08:32:12;20.90;99.90
64685;DHT22;51109;47.414;18.954;2023-09-30T08:34:37;21.00;99.90
64685;DHT22;51109;47.414;18.954;2023-09-30T08:37:03;21.10;99.90
64685;DHT22;51109;47.414;18.954;2023-09-30T08:39:29;21.20;99.90
64685;DHT22;51109;47.414;18.954;2023-09-30T08:41:56;21.40;99.90
64685;DHT22;51109;47.414;18.954;2023-09-30T08:44:24;21.60;99.90
64685;DHT22;51109;47.414;18.954;2023-09-30T08:46:52;22.10;99.90
64685;DHT22;51109;47.414;18.954;2023-09-30T08:49:19;22.10;99.90
64685;DHT22;51109;47.414;18.954;2023-09-30T08:51:48;22.10;99.90
64685;DHT22;51109;47.414;18.954;2023-09-30T08:54:15;21.80;99.90
64685;DHT22;51109;47.414;18.954;2023-09-30T08:56:41;21.60;99.90
64685;DHT22;51109;47.414;18.954;2023-09-30T08:59:10;21.90;99.90
64685;DHT22;51109;47.414;18.954;2023-09-30T09:01:37;21.80;99.90
64685;DHT22;51109;47.414;18.954;2023-09-30T09:04:03;21.60;99.90
64685;DHT22;51109;47.414;18.954;2023-09-30T09:06:29;21.60;99.90
64685;DHT22;51109;47.414;18.954;2023-09-30T09:09:13;21.30;99.90
64685;DHT22;51109;47.414;18.954;2023-09-30T09:11:40;21.20;99.90
64685;DHT22;51109;47.414;18.954;2023-09-30T09:14:06;21.20;99.90
64685;DHT22;51109;47.414;18.954;2023-09-30T09:16:33;21.10;99.90
64685;DHT22;51109;47.414;18.954;2023-09-30T09:18:59;21.00;99.90
64685;DHT22;51109;47.414;18.954;2023-09-30T09:21:24;21.00;99.90
64685;DHT22;51109;47.414;18.954;2023-09-30T09:23:53;20.90;99.90
64685;DHT22;51109;47.414;18.954;2023-09-30T09:26:27;20.70;99.90
64685;DHT22;51109;47.414;18.954;2023-09-30T09:28:58;20.70;99.90
64685;DHT22;51109;47.414;18.954;2023-09-30T09:31:30;20.60;99.90
64685;DHT22;51109;47.414;18.954;2023-09-30T09:33:57;20.70;99.90
64685;DHT22;51109;47.414;18.954;2023-09-30T09:36:38;20.60;99.90
64685;DHT22;51109;47.414;18.954;2023-09-30T09:39:06;20.40;99.90
64685;DHT22;51109;47.414;18.954;2023-09-30T09:41:54;20.40;99.90
64685;DHT22;51109;47.414;18.954;2023-09-30T09:44:22;20.40;99.90
64685;DHT22;51109;47.414;18.954;2023-09-30T09:46:49;20.50;99.90
64685;DHT22;51109;47.414;18.954;2023-09-30T09:49:19;20.50;99.90
64685;DHT22;51109;47.414;18.954;2023-09-30T09:51:46;20.40;99.90
64685;DHT22;51109;47.414;18.954;2023-09-30T09:54:12;20.50;99.90
64685;DHT22;51109;47.414;18.954;2023-09-30T09:56:39;20.50;99.90
64685;DHT22;51109;47.414;18.954;2023-09-30T09:59:05;20.70;99.90
64685;DHT22;51109;47.414;18.954;2023-09-30T10:01:34;20.70;99.90
64685;DHT22;51109;47.414;18.954;2023-09-30T10:04:01;20.90;99.90
64685;DHT22;51109;47.414;18.954;2023-09-30T10:06:28;21.00;99.90
64685;DHT22;51109;47.414;18.954;2023-09-30T10:08:54;21.00;99.90
64685;DHT22;51109;47.414;18.954;2023-09-30T10:11:23;21.10;99.90
64685;DHT22;51109;47.414;18.954;2023-09-30T10:13:59;21.10;99.90
64685;DHT22;51109;47.414;18.954;2023-09-30T10:19:15;21.30;99.90
64685;DHT22;51109;47.414;18.954;2023-09-30T10:24:47;21.50;99.90
64685;DHT22;51109;47.414;18.954;2023-09-30T10:40:48;21.40;99.90
64685;DHT22;51109;47.414;18.954;2023-09-30T10:43:33;21.40;99.90
64685;DHT22;51109;47.414;18.954;2023-09-30T10:46:03;21.40;99.90
64685;DHT22;51109;47.414;18.954;2023-09-30T10:50:58;21.30;99.90
64685;DHT22;51109;47.414;18.954;2023-09-30T10:53:26;21.30;99.90
64685;DHT22;51109;47.414;18.954;2023-09-30T10:55:57;21.30;99.90
64685;DHT22;51109;47.414;18.954;2023-09-30T10:58:59;21.20;99.90
64685;DHT22;51109;47.414;18.954;2023-09-30T11:01:32;21.00;99.90
64685;DHT22;51109;47.414;18.954;2023-09-30T11:04:01;20.90;99.90
64685;DHT22;51109;47.414;18.954;2023-09-30T11:06:31;20.80;99.90
64685;DHT22;51109;47.414;18.954;2023-09-30T11:08:58;20.80;99.90
64685;DHT22;51109;47.414;18.954;2023-09-30T11:11:45;20.80;99.90
64685;DHT22;51109;47.414;18.954;2023-09-30T11:14:26;20.80;99.90
64685;DHT22;51109;47.414;18.954;2023-09-30T11:16:54;20.80;99.90
64685;DHT22;51109;47.414;18.954;2023-09-30T11:19:21;20.60;99.90
64685;DHT22;51109;47.414;18.954;2023-09-30T11:21:52;20.60;99.90
64685;DHT22;51109;47.414;18.954;2023-09-30T11:24:19;20.50;99.90
64685;DHT22;51109;47.414;18.954;2023-09-30T11:26:45;20.40;99.90
64685;DHT22;51109;47.414;18.954;2023-09-30T11:29:13;20.30;99.90
64685;DHT22;51109;47.414;18.954;2023-09-30T11:31:43;20.40;99.90
64685;DHT22;51109;47.414;18.954;2023-09-30T11:34:10;20.20;99.90
64685;DHT22;51109;47.414;18.954;2023-09-30T11:36:55;20.10;99.90
64685;DHT22;51109;47.414;18.954;2023-09-30T11:39:29;20.10;99.90
64685;DHT22;51109;47.414;18.954;2023-09-30T11:41:55;20.00;99.90
64685;DHT22;51109;47.414;18.954;2023-09-30T11:44:26;19.90;99.90
64685;DHT22;51109;47.414;18.954;2023-09-30T11:47:00;19.80;99.90
64685;DHT22;51109;47.414;18.954;2023-09-30T11:49:30;19.80;99.90
64685;DHT22;51109;47.414;18.954;2023-09-30T11:51:59;19.70;99.90
64685;DHT22;51109;47.414;18.954;2023-09-30T11:54:44;19.70;99.90
64685;DHT22;51109;47.414;18.954;2023-09-30T11:57:17;19.70;99.90
64685;DHT22;51109;47.414;18.954;2023-09-30T11:59:45;19.60;99.90
64685;DHT22;51109;47.414;18.954;2023-09-30T12:02:12;19.50;99.90
64685;DHT22;51109;47.414;18.954;2023-09-30T12:04:39;19.60;99.90
64685;DHT22;51109;47.414;18.954;2023-09-30T12:07:05;19.50;99.90
64685;DHT22;51109;47.414;18.954;2023-09-30T12:09:33;19.60;99.90
64685;DHT22;51109;47.414;18.954;2023-09-30T12:12:00;19.50;99.90
64685;DHT22;51109;47.414;18.954;2023-09-30T12:14:27;19.50;99.90
64685;DHT22;51109;47.414;18.954;2023-09-30T12:16:56;19.50;99.90
64685;DHT22;51109;47.414;18.954;2023-09-30T12:19:22;19.50;99.90
64685;DHT22;51109;47.414;18.954;2023-09-30T12:21:48;19.50;99.90
64685;DHT22;51109;47.414;18.954;2023-09-30T12:24:17;19.60;99.90
64685;DHT22;51109;47.414;18.954;2023-09-30T12:26:50;19.60;99.90
64685;DHT22;51109;47.414;18.954;2023-09-30T12:29:20;19.60;99.90
64685;DHT22;51109;47.414;18.954;2023-09-30T12:31:51;19.60;99.90
64685;DHT22;51109;47.414;18.954;2023-09-30T12:34:18;19.60;99.90
64685;DHT22;51109;47.414;18.954;2023-09-30T12:36:44;19.50;99.90
64685;DHT22;51109;47.414;18.954;2023-09-30T12:39:11;19.60;99.90
64685;DHT22;51109;47.414;18.954;2023-09-30T12:41:41;19.60;99.90
64685;DHT22;51109;47.414;18.954;2023-09-30T12:44:08;19.70;99.90
64685;DHT22;51109;47.414;18.954;2023-09-30T12:46:35;19.80;99.90
64685;DHT22;51109;47.414;18.954;2023-09-30T12:49:06;19.80;99.90
64685;DHT22;51109;47.414;18.954;2023-09-30T12:51:33;19.90;99.90
64685;DHT22;51109;47.414;18.954;2023-09-30T12:53:59;20.00;99.90
64685;DHT22;51109;47.414;18.954;2023-09-30T12:56:26;20.00;99.90
64685;DHT22;51109;47.414;18.954;2023-09-30T12:58:52;20.10;99.90
64685;DHT22;51109;47.414;18.954;2023-09-30T13:01:17;20.10;99.90
64685;DHT22;51109;47.414;18.954;2023-09-30T13:03:47;20.20;99.90
64685;DHT22;51109;47.414;18.954;2023-09-30T13:06:13;20.30;99.90
64685;DHT22;51109;47.414;18.954;2023-09-30T13:08:41;20.30;99.90
64685;DHT22;51109;47.414;18.954;2023-09-30T13:11:08;20.30;99.90
64685;DHT22;51109;47.414;18.954;2023-09-30T13:13:34;20.30;99.90
64685;DHT22;51109;47.414;18.954;2023-09-30T13:16:01;20.30;99.90
64685;DHT22;51109;47.414;18.954;2023-09-30T13:18:27;20.40;99.90
64685;DHT22;51109;47.414;18.954;2023-09-30T13:20:53;20.40;99.90
64685;DHT22;51109;47.414;18.954;2023-09-30T13:23:20;20.50;99.90
64685;DHT22;51109;47.414;18.954;2023-09-30T13:25:46;20.50;99.90
64685;DHT22;51109;47.414;18.954;2023-09-30T13:28:13;20.60;99.90
64685;DHT22;51109;47.414;18.954;2023-09-30T13:30:39;20.70;99.90
64685;DHT22;51109;47.414;18.954;2023-09-30T13:33:06;20.70;99.90
64685;DHT22;51109;47.414;18.954;2023-09-30T13:35:32;20.80;99.90
64685;DHT22;51109;47.414;18.954;2023-09-30T13:37:58;20.90;99.90
64685;DHT22;51109;47.414;18.954;2023-09-30T13:40:23;20.80;99.90
64685;DHT22;51109;47.414;18.954;2023-09-30T13:42:49;20.80;99.90
64685;DHT22;51109;47.414;18.954;2023-09-30T13:45:15;20.70;99.90
64685;DHT22;51109;47.414;18.954;2023-09-30T13:47:44;20.80;99.90
64685;DHT22;51109;47.414;18.954;2023-09-30T13:50:10;20.90;99.90
64685;DHT22;51109;47.414;18.954;2023-09-30T13:52:36;21.20;99.90
64685;DHT22;51109;47.414;18.954;2023-09-30T13:55:02;21.70;99.90
64685;DHT22;51109;47.414;18.954;2023-09-30T13:57:30;21.70;99.90
64685;DHT22;51109;47.414;18.954;2023-09-30T13:59:56;21.90;99.90
64685;DHT22;51109;47.414;18.954;2023-09-30T14:02:22;22.00;99.90
64685;DHT22;51109;47.414;18.954;2023-09-30T14:04:49;22.00;99.90
64685;DHT22;51109;47.414;18.954;2023-09-30T14:07:15;21.90;99.90
64685;DHT22;51109;47.414;18.954;2023-09-30T14:09:44;21.70;99.90
64685;DHT22;51109;47.414;18.954;2023-09-30T14:12:10;21.80;99.90
64685;DHT22;51109;47.414;18.954;2023-09-30T14:14:36;21.70;99.90
64685;DHT22;51109;47.414;18.954;2023-09-30T14:17:02;21.70;99.90
64685;DHT22;51109;47.414;18.954;2023-09-30T14:19:38;21.60;99.90
64685;DHT22;51109;47.414;18.954;2023-09-30T14:22:05;21.50;99.90
64685;DHT22;51109;47.414;18.954;2023-09-30T14:24:32;21.50;99.90
64685;DHT22;51109;47.414;18.954;2023-09-30T14:26:59;21.50;99.90
64685;DHT22;51109;47.414;18.954;2023-09-30T14:29:25;21.50;99.90
64685;DHT22;51109;47.414;18.954;2023-09-30T14:31:51;21.50;99.90
64685;DHT22;51109;47.414;18.954;2023-09-30T14:34:17;21.60;99.90
64685;DHT22;51109;47.414;18.954;2023-09-30T14:36:43;21.70;99.90
64685;DHT22;51109;47.414;18.954;2023-09-30T14:39:10;21.60;99.90
64685;DHT22;51109;47.414;18.954;2023-09-30T14:41:36;21.70;99.90
64685;DHT22;51109;47.414;18.954;2023-09-30T14:44:02;21.70;99.90
64685;DHT22;51109;47.414;18.954;2023-09-30T14:46:34;21.80;99.90
64685;DHT22;51109;47.414;18.954;2023-09-30T14:49:00;21.90;99.90
64685;DHT22;51109;47.414;18.954;2023-09-30T14:51:26;21.90;99.90
64685;DHT22;51109;47.414;18.954;2023-09-30T14:53:52;22.10;99.90
64685;DHT22;51109;47.414;18.954;2023-09-30T14:56:18;21.90;99.90
64685;DHT22;51109;47.414;18.954;2023-09-30T14:58:45;21.90;99.90
64685;DHT22;51109;47.414;18.954;2023-09-30T15:01:11;21.80;99.90
64685;DHT22;51109;47.414;18.954;2023-09-30T15:03:37;21.70;99.90
64685;DHT22;51109;47.414;18.954;2023-09-30T15:06:07;21.70;99.90
64685;DHT22;51109;47.414;18.954;2023-09-30T15:08:35;21.60;99.90
64685;DHT22;51109;47.414;18.954;2023-09-30T15:11:01;21.50;99.90
64685;DHT22;51109;47.414;18.954;2023-09-30T15:13:28;21.50;99.90
64685;DHT22;51109;47.414;18.954;2023-09-30T15:15:54;21.40;99.90
64685;DHT22;51109;47.414;18.954;2023-09-30T15:18:20;21.40;99.90
64685;DHT22;51109;47.414;18.954;2023-09-30T15:20:48;21.30;99.90
64685;DHT22;51109;47.414;18.954;2023-09-30T15:23:14;21.30;99.90
64685;DHT22;51109;47.414;18.954;2023-09-30T15:25:41;21.20;99.90
64685;DHT22;51109;47.414;18.954;2023-09-30T15:28:09;21.10;99.90
64685;DHT22;51109;47.414;18.954;2023-09-30T15:30:35;21.10;99.90
64685;DHT22;51109;47.414;18.954;2023-09-30T15:33:01;21.10;99.90
64685;DHT22;51109;47.414;18.954;2023-09-30T15:35:28;21.10;99.90
64685;DHT22;51109;47.414;18.954;2023-09-30T15:37:54;21.00;99.90
64685;DHT22;51109;47.414;18.954;2023-09-30T15:40:20;21.00;99.90
64685;DHT22;51109;47.414;18.954;2023-09-30T15:42:46;20.90;99.90
64685;DHT22;51109;47.414;18.954;2023-09-30T15:45:12;20.90;99.90
64685;DHT22;51109;47.414;18.954;2023-09-30T15:47:38;20.80;99.90
64685;DHT22;51109;47.414;18.954;2023-09-30T15:50:05;20.70;99.90